Time;durP1;ratioP1;P1;durP2;ratioP2;P2;SDS_P1;SDS_P2;PMS_P1;PMS_P2;Temp;Humidity;BMP_temperature;BMP_pressure;BME280_temperature;BME280_humidity;BME280_pressure;Samples;Min_cycle;Max_cycle;Signal;HPM_P1;HPM_P2
2021/11/05 00:00:35;;;;;;;1.60;1.00;;;7.90;99.90;;;;;;5055241;28;20498;-59
2021/11/05 00:03:07;;;;;;;2.27;1.20;;;7.90;99.90;;;;;;5092535;23;20967;-57
2021/11/05 00:05:37;;;;;;;2.47;1.10;;;7.80;99.90;;;;;;5055246;28;20420;-57
2021/11/05 00:08:07;;;;;;;6.00;1.23;;;7.80;99.90;;;;;;5061809;23;20467;-60
2021/11/05 00:10:34;;;;;;;3.07;1.40;;;7.80;99.90;;;;;;5054921;28;20480;-56
2021/11/05 00:13:05;;;;;;;2.27;1.40;;;7.80;99.90;;;;;;5091273;23;20542;-58
2021/11/05 00:15:33;;;;;;;2.03;1.10;;;7.80;99.90;;;;;;5055018;28;20433;-59
2021/11/05 00:17:59;;;;;;;1.73;1.40;;;7.80;99.90;;;;;;5075489;23;20486;-57
2021/11/05 00:20:27;;;;;;;1.23;1.03;;;7.80;99.90;;;;;;5053866;28;20451;-60
2021/11/05 00:22:54;;;;;;;1.20;1.00;;;7.80;99.90;;;;;;5061777;23;20468;-57
2021/11/05 00:25:22;;;;;;;1.27;1.10;;;7.80;99.90;;;;;;5060386;23;20480;-52
2021/11/05 00:27:48;;;;;;;1.93;1.53;;;7.80;99.90;;;;;;5054017;28;20440;-57
2021/11/05 00:30:17;;;;;;;1.67;0.97;;;7.80;99.90;;;;;;5061342;23;20488;-59
2021/11/05 00:32:46;;;;;;;0.93;0.73;;;7.70;99.90;;;;;;5054729;28;20503;-59
2021/11/05 00:35:16;;;;;;;1.40;1.00;;;7.70;99.90;;;;;;5061680;23;20490;-58
2021/11/05 00:37:45;;;;;;;1.23;1.13;;;7.70;99.90;;;;;;5054547;28;20519;-58
2021/11/05 00:40:15;;;;;;;1.13;1.00;;;7.60;99.90;;;;;;5061903;23;20518;-57
2021/11/05 00:42:42;;;;;;;1.37;1.17;;;7.60;99.90;;;;;;5054695;28;20416;-60
2021/11/05 00:45:10;;;;;;;0.90;0.70;;;7.60;99.90;;;;;;5061743;23;20496;-57
2021/11/05 00:47:41;;;;;;;1.17;0.80;;;7.60;99.90;;;;;;5055183;28;20449;-56
2021/11/05 00:50:11;;;;;;;1.77;1.20;;;7.60;99.90;;;;;;5105912;23;20475;-58
2021/11/05 00:52:37;;;;;;;1.37;0.97;;;7.60;99.90;;;;;;5054264;28;20464;-55
2021/11/05 00:55:06;;;;;;;1.10;0.90;;;7.60;99.90;;;;;;5062956;23;20796;-58
2021/11/05 00:57:36;;;;;;;2.03;1.10;;;7.60;99.90;;;;;;5053793;28;20518;-59
2021/11/05 01:02:53;;;;;;;1.47;1.00;;;7.60;99.90;;;;;;5078063;23;20475;-55
2021/11/05 01:07:56;;;;;;;1.47;1.00;;;7.60;99.90;;;;;;5063141;23;20479;-56
2021/11/05 01:10:23;;;;;;;2.80;1.00;;;7.60;99.90;;;;;;5058800;28;20435;-58
2021/11/05 01:12:53;;;;;;;1.30;1.10;;;7.60;99.90;;;;;;5080305;23;20530;-59
2021/11/05 01:15:20;;;;;;;1.10;0.80;;;7.50;99.90;;;;;;5058813;28;20447;-56
2021/11/05 01:17:48;;;;;;;1.03;0.93;;;7.60;99.90;;;;;;5065569;23;20470;-59
2021/11/05 01:20:18;;;;;;;1.20;0.80;;;7.60;99.90;;;;;;5058088;28;21002;-55
2021/11/05 01:22:45;;;;;;;1.00;0.73;;;7.60;99.90;;;;;;5094516;23;20486;-55
2021/11/05 01:25:14;;;;;;;1.10;0.73;;;7.60;99.90;;;;;;5058431;28;20428;-56
2021/11/05 01:27:42;;;;;;;1.40;1.00;;;7.50;99.90;;;;;;5064408;23;20475;-58
2021/11/05 01:30:16;;;;;;;1.57;1.37;;;7.60;99.90;;;;;;5057416;28;20558;-59
2021/11/05 01:32:43;;;;;;;2.13;1.47;;;7.60;99.90;;;;;;5065202;23;20548;-60
2021/11/05 01:35:22;;;;;;;0.90;0.70;;;7.60;99.90;;;;;;5058160;28;20443;-53
2021/11/05 01:37:53;;;;;;;1.60;0.90;;;7.60;99.90;;;;;;5079241;23;20487;-59
2021/11/05 01:40:20;;;;;;;1.40;0.80;;;7.60;99.90;;;;;;5057595;28;20490;-58
2021/11/05 01:42:47;;;;;;;1.20;0.80;;;7.70;99.90;;;;;;5078948;23;20530;-57
2021/11/05 01:45:14;;;;;;;3.73;1.00;;;7.70;99.90;;;;;;5057323;28;20432;-58
2021/11/05 01:47:41;;;;;;;2.80;1.20;;;7.70;99.90;;;;;;5079404;23;20518;-59
2021/11/05 01:50:09;;;;;;;1.00;0.70;;;7.70;99.90;;;;;;5057079;28;20440;-59
2021/11/05 01:52:40;;;;;;;1.67;1.00;;;7.70;99.90;;;;;;5064900;23;20480;-59
2021/11/05 01:55:12;;;;;;;1.90;1.30;;;7.60;99.90;;;;;;5057343;28;20440;-61
2021/11/05 01:57:41;;;;;;;1.00;0.90;;;7.70;99.90;;;;;;5064498;23;20472;-55
2021/11/05 02:00:11;;;;;;;1.73;0.83;;;7.60;99.90;;;;;;5057030;28;20454;-60
2021/11/05 02:02:48;;;;;;;1.50;1.00;;;7.60;99.90;;;;;;5094495;23;20472;-47
2021/11/05 02:05:15;;;;;;;1.30;0.80;;;7.70;99.90;;;;;;5035212;28;20480;-61
2021/11/05 02:10:23;;;;;;;0.90;0.73;;;7.60;99.90;;;;;;5062309;23;20507;-57
2021/11/05 02:12:51;;;;;;;2.30;1.43;;;7.60;99.90;;;;;;5056353;28;20437;-59
2021/11/05 02:15:18;;;;;;;1.60;1.30;;;7.70;99.90;;;;;;5062724;23;20483;-58
2021/11/05 02:17:47;;;;;;;1.53;0.97;;;7.70;99.90;;;;;;5056554;28;20445;-57
2021/11/05 02:20:21;;;;;;;1.40;1.20;;;7.70;99.90;;;;;;5064116;23;20480;-57
2021/11/05 02:22:49;;;;;;;1.10;0.87;;;7.70;99.90;;;;;;5113470;23;20502;-56
2021/11/05 02:25:17;;;;;;;2.17;1.90;;;7.60;99.90;;;;;;5076841;23;20496;-56
2021/11/05 02:27:43;;;;;;;1.43;0.73;;;7.60;99.90;;;;;;5054554;28;20464;-53
2021/11/05 02:30:11;;;;;;;0.90;0.70;;;7.60;99.90;;;;;;5060883;23;20546;-55
2021/11/05 02:32:41;;;;;;;1.20;0.90;;;7.60;99.90;;;;;;5054729;28;20429;-56
2021/11/05 02:35:11;;;;;;;1.20;0.80;;;7.60;99.90;;;;;;5076144;23;20560;-54
2021/11/05 02:37:43;;;;;;;2.00;1.07;;;7.60;99.90;;;;;;5054873;28;20467;-58
2021/11/05 02:40:15;;;;;;;1.20;1.03;;;7.70;99.90;;;;;;5090676;23;20488;-53
2021/11/05 02:42:42;;;;;;;1.33;0.93;;;7.60;99.90;;;;;;5054306;28;20537;-56
2021/11/05 02:45:14;;;;;;;2.70;1.70;;;7.70;99.90;;;;;;5057177;23;20492;-56
2021/11/05 02:47:42;;;;;;;1.57;1.10;;;7.70;99.90;;;;;;5046406;28;20475;-57
2021/11/05 02:50:12;;;;;;;1.50;1.30;;;7.70;99.90;;;;;;5045287;23;20488;-52
2021/11/05 02:52:46;;;;;;;2.77;1.10;;;7.70;99.90;;;;;;5047469;28;20760;-45
2021/11/05 02:55:15;;;;;;;1.13;0.80;;;7.80;99.90;;;;;;5054376;23;20460;-50
2021/11/05 02:57:42;;;;;;;3.00;1.20;;;7.70;99.90;;;;;;5050335;28;20543;-54
2021/11/05 03:00:14;;;;;;;2.73;1.30;;;7.70;99.90;;;;;;5046176;23;20966;-48
2021/11/05 03:02:41;;;;;;;0.90;0.63;;;7.70;99.90;;;;;;5049280;28;20432;-51
2021/11/05 03:05:08;;;;;;;1.43;1.10;;;7.80;99.90;;;;;;5055862;23;20471;-61
2021/11/05 03:07:37;;;;;;;1.00;0.80;;;7.70;99.90;;;;;;5051425;28;20762;-51
2021/11/05 03:10:04;;;;;;;1.80;1.17;;;7.70;99.90;;;;;;5039936;28;20457;-56
2021/11/05 03:12:33;;;;;;;2.13;1.60;;;7.70;99.90;;;;;;5048913;23;20502;-50
2021/11/05 03:14:59;;;;;;;1.90;1.63;;;7.80;99.90;;;;;;5047909;28;20557;-57
2021/11/05 03:17:26;;;;;;;2.83;1.83;;;7.80;99.90;;;;;;5084551;23;20496;-57
2021/11/05 03:19:53;;;;;;;3.57;1.33;;;7.90;99.90;;;;;;5045557;28;20471;-43
2021/11/05 03:22:23;;;;;;;2.30;2.10;;;7.80;99.90;;;;;;5071222;23;20555;-46
2021/11/05 03:24:50;;;;;;;2.53;1.03;;;7.90;99.90;;;;;;5052558;28;20424;-55
2021/11/05 03:27:17;;;;;;;2.23;1.63;;;7.90;99.90;;;;;;5051851;23;20546;-55
2021/11/05 03:29:45;;;;;;;1.83;1.47;;;7.90;99.90;;;;;;5036254;28;20567;-54
2021/11/05 03:32:11;;;;;;;9.60;1.67;;;7.90;99.90;;;;;;5057560;23;20460;-55
2021/11/05 03:34:39;;;;;;;2.30;1.47;;;7.90;99.90;;;;;;5049129;28;20498;-42
2021/11/05 03:37:06;;;;;;;2.40;1.53;;;7.90;99.90;;;;;;5044011;23;20986;-55
2021/11/05 03:39:34;;;;;;;2.80;1.30;;;7.90;99.90;;;;;;5051918;28;20460;-57
2021/11/05 03:42:01;;;;;;;1.70;1.40;;;7.90;99.90;;;;;;5048852;23;20483;-57
2021/11/05 03:44:28;;;;;;;3.37;2.00;;;7.90;99.90;;;;;;5045836;28;20502;-56
2021/11/05 03:46:57;;;;;;;2.57;1.60;;;8.00;99.90;;;;;;5054166;23;21244;-47
2021/11/05 03:49:23;;;;;;;2.07;1.23;;;8.00;99.90;;;;;;5059663;23;20492;-57
2021/11/05 03:51:50;;;;;;;1.60;1.40;;;8.10;99.90;;;;;;5055878;28;20464;-58
2021/11/05 03:54:17;;;;;;;5.13;1.87;;;8.10;99.90;;;;;;5062791;23;20499;-50
2021/11/05 03:56:44;;;;;;;1.87;1.40;;;8.10;99.90;;;;;;5056038;28;20440;-53
2021/11/05 03:59:23;;;;;;;3.10;1.70;;;8.10;99.90;;;;;;5077038;23;20519;-52
2021/11/05 04:04:32;;;;;;;4.70;2.10;;;8.10;99.90;;;;;;5063336;23;20495;-51
2021/11/05 04:06:59;;;;;;;2.40;1.60;;;8.10;99.90;;;;;;5055473;28;20441;-54
2021/11/05 04:09:31;;;;;;;2.17;1.40;;;8.10;99.90;;;;;;5077099;23;20506;-53
2021/11/05 04:11:58;;;;;;;3.40;2.03;;;8.10;99.90;;;;;;5055186;28;20416;-56
2021/11/05 04:14:42;;;;;;;2.20;1.47;;;8.10;99.90;;;;;;5062043;23;20484;-55
2021/11/05 04:17:09;;;;;;;3.20;1.97;;;8.10;99.90;;;;;;5054901;28;20492;-56
2021/11/05 04:19:37;;;;;;;2.10;1.63;;;8.10;99.90;;;;;;5062271;23;20491;-56
2021/11/05 04:22:05;;;;;;;1.80;1.47;;;8.10;99.90;;;;;;5054804;28;20472;-55
2021/11/05 04:24:32;;;;;;;4.60;2.50;;;8.10;99.90;;;;;;5062164;23;20467;-51
2021/11/05 04:26:58;;;;;;;3.30;2.60;;;8.20;99.90;;;;;;5055319;28;20466;-54
2021/11/05 04:29:28;;;;;;;3.60;2.67;;;8.20;99.90;;;;;;5062639;23;20455;-58
2021/11/05 04:31:55;;;;;;;3.63;2.70;;;8.20;99.90;;;;;;5056242;28;20424;-57
2021/11/05 04:34:22;;;;;;;3.03;2.30;;;8.30;99.90;;;;;;5078677;23;20472;-48
2021/11/05 04:36:50;;;;;;;4.33;2.73;;;8.20;99.90;;;;;;5058254;28;20458;-51
2021/11/05 04:39:17;;;;;;;4.17;3.23;;;8.30;99.90;;;;;;5059184;28;20448;-54
2021/11/05 04:41:45;;;;;;;4.20;2.97;;;8.30;99.90;;;;;;5066525;23;20490;-49
2021/11/05 04:44:14;;;;;;;4.80;2.27;;;8.30;99.90;;;;;;5059842;28;20588;-51
2021/11/05 04:46:40;;;;;;;3.00;2.50;;;8.30;99.90;;;;;;5066652;23;20515;-54
2021/11/05 04:49:07;;;;;;;5.27;3.40;;;8.30;99.90;;;;;;5059921;28;20435;-53
2021/11/05 04:51:34;;;;;;;4.00;3.50;;;8.30;99.90;;;;;;5111115;23;20522;-54
2021/11/05 04:54:03;;;;;;;5.17;3.60;;;8.30;99.90;;;;;;5059693;28;20498;-57
2021/11/05 04:56:30;;;;;;;6.87;3.80;;;8.30;99.90;;;;;;5081372;23;20475;-54
2021/11/05 04:58:57;;;;;;;3.70;2.40;;;8.30;99.90;;;;;;5059422;28;20440;-51
2021/11/05 05:03:50;;;;;;;3.83;2.43;;;8.20;99.90;;;;;;5064563;23;20470;-54
2021/11/05 05:06:17;;;;;;;5.73;4.40;;;8.20;99.90;;;;;;5059829;28;20503;-57
2021/11/05 05:08:44;;;;;;;5.27;3.67;;;8.20;99.90;;;;;;5066621;23;20484;-55
2021/11/05 05:11:13;;;;;;;6.60;3.30;;;8.20;99.90;;;;;;5059672;28;20452;-57
2021/11/05 05:13:40;;;;;;;8.00;4.60;;;8.20;99.90;;;;;;5058365;23;20587;-57
2021/11/05 05:16:10;;;;;;;8.03;5.20;;;8.20;99.90;;;;;;5038456;28;20447;-57
2021/11/05 05:18:36;;;;;;;7.90;5.33;;;8.20;99.90;;;;;;5031393;23;20559;-58
2021/11/05 05:21:07;;;;;;;7.60;4.80;;;8.30;99.90;;;;;;5018174;28;20441;-56
2021/11/05 05:23:34;;;;;;;9.00;5.77;;;8.30;99.90;;;;;;5035776;23;20955;-56
2021/11/05 05:26:01;;;;;;;9.63;5.47;;;8.30;99.90;;;;;;5037747;28;20521;-55
2021/11/05 05:28:31;;;;;;;8.53;4.77;;;8.20;99.90;;;;;;5044689;23;20484;-55
2021/11/05 05:30:57;;;;;;;12.83;5.83;;;8.20;99.90;;;;;;5039158;28;20458;-55
2021/11/05 05:33:24;;;;;;;10.93;6.03;;;8.30;99.90;;;;;;5046849;23;20472;-53
2021/11/05 05:35:51;;;;;;;10.40;5.20;;;8.30;99.90;;;;;;5037419;28;20494;-56
2021/11/05 05:38:17;;;;;;;9.60;5.77;;;8.30;99.90;;;;;;5044725;23;20491;-57
2021/11/05 05:40:44;;;;;;;6.50;4.57;;;8.30;99.90;;;;;;5037405;28;20869;-57
2021/11/05 05:43:11;;;;;;;7.20;5.63;;;8.30;99.90;;;;;;5044336;23;20547;-53
2021/11/05 05:45:39;;;;;;;9.17;4.23;;;8.20;99.90;;;;;;5044058;23;20488;-55
2021/11/05 05:48:06;;;;;;;7.07;4.73;;;8.30;99.90;;;;;;5038096;28;20905;-51
2021/11/05 05:50:32;;;;;;;9.83;5.40;;;8.30;99.90;;;;;;5046230;23;21014;-57
2021/11/05 05:52:59;;;;;;;9.80;6.03;;;8.40;99.90;;;;;;5048990;28;20460;-55
2021/11/05 05:55:26;;;;;;;8.17;6.00;;;8.30;99.90;;;;;;5051662;23;20526;-52
2021/11/05 05:57:53;;;;;;;15.00;7.00;;;8.30;99.90;;;;;;5043631;28;20436;-55
2021/11/05 06:00:29;;;;;;;11.13;6.83;;;8.40;99.90;;;;;;5050083;23;20488;-55
2021/11/05 06:02:57;;;;;;;9.33;5.43;;;8.40;99.90;;;;;;5044070;28;20877;-55
2021/11/05 06:05:24;;;;;;;10.57;5.87;;;8.40;99.90;;;;;;5051268;23;20571;-57
2021/11/05 06:07:51;;;;;;;11.50;6.37;;;8.30;99.90;;;;;;5044093;28;20472;-55
2021/11/05 06:10:22;;;;;;;9.40;6.00;;;8.40;99.90;;;;;;5049914;23;20504;-52
2021/11/05 06:12:49;;;;;;;9.43;6.20;;;8.40;99.90;;;;;;5043887;28;20463;-58
2021/11/05 06:15:15;;;;;;;18.10;7.93;;;8.40;99.90;;;;;;5050911;23;20522;-53
2021/11/05 06:17:43;;;;;;;9.97;6.27;;;8.40;99.90;;;;;;5043342;28;20490;-56
2021/11/05 06:20:11;;;;;;;10.80;6.47;;;8.40;99.90;;;;;;5045615;23;20527;-56
2021/11/05 06:22:38;;;;;;;16.40;8.20;;;8.40;99.90;;;;;;5035815;28;20456;-54
2021/11/05 06:25:06;;;;;;;12.23;7.33;;;8.40;99.90;;;;;;5036512;28;20543;-59
2021/11/05 06:27:33;;;;;;;11.20;6.47;;;8.40;99.90;;;;;;5043878;23;20484;-57
2021/11/05 06:29:59;;;;;;;11.50;6.67;;;8.40;99.90;;;;;;5036404;28;20475;-56
2021/11/05 06:32:26;;;;;;;11.83;7.60;;;8.50;99.90;;;;;;5050590;23;20484;-57
2021/11/05 06:34:54;;;;;;;9.87;5.90;;;8.50;99.90;;;;;;5036151;28;20531;-56
2021/11/05 06:37:22;;;;;;;23.50;8.77;;;8.50;99.90;;;;;;5043738;23;20955;-56
2021/11/05 06:39:48;;;;;;;8.77;5.57;;;8.40;99.90;;;;;;5036165;28;20444;-55
2021/11/05 06:42:20;;;;;;;11.63;7.57;;;8.40;99.90;;;;;;5043116;23;20918;-56
2021/11/05 06:44:47;;;;;;;11.27;6.47;;;8.40;99.90;;;;;;5036978;28;20452;-54
2021/11/05 06:47:14;;;;;;;8.97;5.13;;;8.50;99.90;;;;;;5043395;23;20468;-51
2021/11/05 06:49:40;;;;;;;8.93;5.17;;;8.50;99.90;;;;;;5036074;28;20428;-55
2021/11/05 06:52:07;;;;;;;10.80;6.30;;;8.50;99.90;;;;;;5036181;28;20490;-59
2021/11/05 06:54:38;;;;;;;7.40;4.90;;;8.50;99.90;;;;;;5043175;23;20488;-60
2021/11/05 06:57:05;;;;;;;13.80;6.33;;;8.50;99.90;;;;;;5056428;28;20499;-52
2021/11/05 06:59:46;;;;;;;11.27;7.20;;;8.50;99.90;;;;;;5056902;23;20484;-55
2021/11/05 07:02:13;;;;;;;10.93;6.80;;;8.50;99.90;;;;;;5039530;28;20933;-54
2021/11/05 07:04:39;;;;;;;10.43;5.77;;;8.50;99.90;;;;;;5056330;23;20972;-57
2021/11/05 07:07:06;;;;;;;10.43;6.43;;;8.50;99.90;;;;;;5051652;28;20444;-55
2021/11/05 07:09:38;;;;;;;12.13;7.07;;;8.60;99.90;;;;;;5060547;23;20492;-53
2021/11/05 07:12:05;;;;;;;8.00;5.80;;;8.50;99.90;;;;;;5051103;28;20436;-55
2021/11/05 07:14:32;;;;;;;9.00;5.90;;;8.50;99.90;;;;;;5057892;23;20506;-50
2021/11/05 07:16:58;;;;;;;11.70;5.50;;;8.50;99.90;;;;;;5052488;28;20588;-54
2021/11/05 07:19:28;;;;;;;12.73;6.40;;;8.60;99.90;;;;;;5058773;23;20519;-54
2021/11/05 07:22:03;;;;;;;12.03;6.93;;;8.50;99.90;;;;;;5055822;28;20447;-54
2021/11/05 07:24:35;;;;;;;15.33;6.70;;;8.60;99.90;;;;;;5063554;23;20502;-56
2021/11/05 07:27:04;;;;;;;8.70;6.00;;;8.60;99.90;;;;;;5056120;28;20431;-51
2021/11/05 07:29:31;;;;;;;8.40;5.30;;;8.60;99.90;;;;;;5091639;23;20506;-53
2021/11/05 07:32:00;;;;;;;9.27;5.50;;;8.60;99.90;;;;;;5055099;28;20432;-58
2021/11/05 07:34:30;;;;;;;10.47;6.27;;;8.60;99.90;;;;;;5077468;23;20480;-57
2021/11/05 07:37:00;;;;;;;14.07;6.73;;;8.70;99.90;;;;;;5056213;28;20474;-54
2021/11/05 07:39:30;;;;;;;10.53;5.63;;;8.60;99.90;;;;;;5062747;23;20445;-56
2021/11/05 07:41:59;;;;;;;9.27;5.97;;;8.70;99.90;;;;;;5055636;28;20447;-56
2021/11/05 07:44:30;;;;;;;10.20;5.63;;;8.70;99.90;;;;;;5063692;23;20448;-49
2021/11/05 07:46:57;;;;;;;11.00;4.90;;;8.70;99.90;;;;;;5054651;28;20464;-52
2021/11/05 07:49:23;;;;;;;10.50;5.33;;;8.80;99.90;;;;;;5055809;28;20440;-54
2021/11/05 07:51:53;;;;;;;11.77;7.20;;;8.80;99.90;;;;;;5077262;23;20519;-53
2021/11/05 07:54:26;;;;;;;10.40;5.57;;;8.80;99.90;;;;;;5054793;28;20483;-56
2021/11/05 07:56:54;;;;;;;8.80;5.43;;;8.80;99.90;;;;;;5076503;23;20571;-64
2021/11/05 07:59:22;;;;;;;16.73;7.30;;;8.90;99.90;;;;;;5054162;28;20472;-59
2021/11/05 08:01:56;;;;;;;12.27;5.57;;;8.90;99.90;;;;;;5043583;28;20460;-60
2021/11/05 08:04:24;;;;;;;9.97;5.00;;;8.80;99.90;;;;;;5039860;28;20468;-60
2021/11/05 08:06:51;;;;;;;10.20;6.20;;;8.90;99.90;;;;;;5039652;28;20955;-56
2021/11/05 08:09:18;;;;;;;9.50;6.33;;;8.90;99.90;;;;;;5039019;28;20502;-58
2021/11/05 08:11:44;;;;;;;11.50;5.90;;;8.80;99.90;;;;;;5038515;28;20503;-56
2021/11/05 08:14:11;;;;;;;9.67;5.37;;;8.80;99.90;;;;;;5039518;28;20459;-61
2021/11/05 08:16:38;;;;;;;8.53;5.63;;;8.80;99.90;;;;;;5038595;28;20545;-59
2021/11/05 08:19:06;;;;;;;17.40;6.27;;;8.90;99.90;;;;;;5039655;28;20472;-59
2021/11/05 08:21:33;;;;;;;10.40;5.40;;;8.90;99.90;;;;;;5040671;28;20475;-61
2021/11/05 08:24:00;;;;;;;6.33;5.20;;;8.90;99.90;;;;;;5039963;28;20996;-61
2021/11/05 08:26:28;;;;;;;15.73;5.60;;;8.90;99.90;;;;;;5040853;28;20441;-61
2021/11/05 08:28:56;;;;;;;10.63;4.93;;;9.00;99.90;;;;;;5036635;28;20472;-56
2021/11/05 08:31:24;;;;;;;11.73;4.80;;;9.00;99.90;;;;;;5037031;28;20441;-61
2021/11/05 08:33:51;;;;;;;9.30;5.97;;;9.00;99.90;;;;;;5036293;28;20551;-59
2021/11/05 08:36:23;;;;;;;9.10;5.00;;;9.00;99.90;;;;;;5036534;28;20480;-59
2021/11/05 08:38:49;;;;;;;8.90;6.27;;;9.00;99.90;;;;;;5036547;28;20476;-58
2021/11/05 08:41:17;;;;;;;8.27;5.63;;;9.10;99.90;;;;;;5038792;28;20444;-59
2021/11/05 08:43:46;;;;;;;7.63;5.20;;;9.10;99.90;;;;;;5039124;28;20456;-59
2021/11/05 08:46:17;;;;;;;7.07;5.30;;;9.10;99.90;;;;;;5038896;28;20429;-59
2021/11/05 08:48:44;;;;;;;7.50;5.03;;;9.10;99.90;;;;;;5036594;28;20479;-58
2021/11/05 08:51:12;;;;;;;7.83;4.60;;;9.10;99.90;;;;;;5039654;28;20535;-60
2021/11/05 08:53:41;;;;;;;9.70;5.73;;;9.20;99.90;;;;;;5039558;28;20464;-62
2021/11/05 08:56:08;;;;;;;9.33;4.63;;;9.20;99.90;;;;;;5036430;28;20480;-62
2021/11/05 08:58:36;;;;;;;11.57;6.47;;;9.20;99.90;;;;;;5036729;28;20909;-60
2021/11/05 09:01:03;;;;;;;7.43;4.40;;;9.30;99.90;;;;;;5037256;28;20522;-60
2021/11/05 09:03:30;;;;;;;14.97;5.30;;;9.30;99.90;;;;;;5036142;28;20448;-59
2021/11/05 09:05:57;;;;;;;9.00;4.87;;;9.40;99.90;;;;;;5036314;28;20454;-57
2021/11/05 09:08:29;;;;;;;9.47;5.93;;;9.40;99.90;;;;;;5036009;28;20445;-53
2021/11/05 09:10:57;;;;;;;8.37;4.83;;;9.40;99.90;;;;;;5035640;28;20490;-60
2021/11/05 09:13:24;;;;;;;7.70;4.47;;;9.50;99.90;;;;;;5036342;28;20880;-60
2021/11/05 09:15:51;;;;;;;7.80;4.60;;;9.40;99.90;;;;;;5035531;28;20495;-61
2021/11/05 09:18:19;;;;;;;8.60;6.07;;;9.50;99.90;;;;;;5040913;28;20925;-61
2021/11/05 09:20:46;;;;;;;9.67;5.10;;;9.50;99.90;;;;;;5036852;28;20514;-61
2021/11/05 09:23:13;;;;;;;8.77;4.87;;;9.50;99.90;;;;;;5039254;28;20443;-62
2021/11/05 09:25:39;;;;;;;5.03;3.93;;;9.50;99.90;;;;;;5039105;28;20534;-58
2021/11/05 09:28:07;;;;;;;5.50;4.00;;;9.80;99.90;;;;;;5041856;28;20460;-59
2021/11/05 09:30:34;;;;;;;5.47;3.80;;;10.20;99.90;;;;;;5039813;28;20464;-59
2021/11/05 09:33:01;;;;;;;6.67;4.53;;;10.00;99.90;;;;;;5039510;28;20454;-58
2021/11/05 09:35:28;;;;;;;6.03;3.90;;;9.90;99.90;;;;;;5039482;28;20488;-59
2021/11/05 09:37:55;;;;;;;6.53;3.83;;;9.90;99.90;;;;;;5039522;28;20444;-60
2021/11/05 09:40:26;;;;;;;6.27;3.80;;;9.80;99.90;;;;;;5039448;28;20483;-56
2021/11/05 09:42:53;;;;;;;5.00;3.77;;;9.80;99.90;;;;;;5039284;28;20448;-61
2021/11/05 09:45:23;;;;;;;5.47;3.20;;;9.80;99.90;;;;;;5044275;28;20488;-57
2021/11/05 09:47:51;;;;;;;14.80;4.30;;;9.80;99.90;;;;;;5039561;28;20464;-59
2021/11/05 09:50:20;;;;;;;6.10;4.43;;;9.70;99.90;;;;;;5038886;28;20839;-59
2021/11/05 09:52:48;;;;;;;8.90;5.60;;;9.70;99.90;;;;;;5039031;28;20440;-60
2021/11/05 09:55:16;;;;;;;13.87;5.50;;;9.70;99.90;;;;;;5038759;28;20448;-55
2021/11/05 09:57:43;;;;;;;6.50;3.80;;;9.70;99.90;;;;;;5039076;28;20428;-60
2021/11/05 10:00:14;;;;;;;9.10;3.70;;;9.80;99.90;;;;;;5038157;28;20518;-57
2021/11/05 10:02:46;;;;;;;8.40;4.47;;;9.90;99.90;;;;;;5039881;28;20881;-60
2021/11/05 10:05:15;;;;;;;8.17;3.63;;;9.80;99.90;;;;;;5038446;28;20435;-59
2021/11/05 10:07:47;;;;;;;5.73;3.87;;;9.80;99.90;;;;;;5038428;28;20559;-60
2021/11/05 10:10:14;;;;;;;13.13;4.17;;;9.80;99.90;;;;;;5038747;28;20986;-56
2021/11/05 10:12:53;;;;;;;16.43;4.70;;;9.80;99.90;;;;;;5043191;28;20836;-62
2021/11/05 10:15:20;;;;;;;6.97;3.60;;;9.90;99.90;;;;;;5042268;28;20498;-60
2021/11/05 10:17:48;;;;;;;6.60;4.80;;;9.80;99.90;;;;;;5041017;28;20448;-57
2021/11/05 10:20:16;;;;;;;7.80;5.03;;;9.80;99.90;;;;;;5040453;28;20444;-59
2021/11/05 10:22:47;;;;;;;7.00;3.53;;;9.80;99.90;;;;;;5038370;28;20467;-60
2021/11/05 10:25:24;;;;;;;4.40;3.13;;;9.80;99.90;;;;;;5038605;28;20449;-59
2021/11/05 10:28:05;;;;;;;6.53;3.67;;;9.80;99.90;;;;;;5038381;28;20877;-57
2021/11/05 10:30:34;;;;;;;4.33;2.80;;;9.90;99.90;;;;;;5038175;28;20432;-57
2021/11/05 10:33:04;;;;;;;7.20;5.10;;;9.90;99.90;;;;;;5038206;28;20789;-60
2021/11/05 10:35:31;;;;;;;5.63;4.23;;;9.90;99.90;;;;;;5039349;28;20444;-65
2021/11/05 10:38:03;;;;;;;5.23;3.90;;;10.00;99.90;;;;;;5040890;28;20444;-59
2021/11/05 10:40:35;;;;;;;4.77;2.93;;;10.00;99.90;;;;;;5038413;28;20441;-61
2021/11/05 10:43:03;;;;;;;5.53;3.40;;;10.00;99.90;;;;;;5038674;28;20483;-59
2021/11/05 10:45:30;;;;;;;5.40;2.93;;;10.00;99.90;;;;;;5038280;28;20901;-59
2021/11/05 10:48:04;;;;;;;5.10;3.30;;;9.90;99.90;;;;;;5039285;28;20476;-63
2021/11/05 10:50:35;;;;;;;4.33;3.20;;;9.90;99.90;;;;;;5039134;28;20521;-60
2021/11/05 10:53:05;;;;;;;6.93;3.77;;;10.00;99.90;;;;;;5037691;28;20476;-59
2021/11/05 10:55:46;;;;;;;6.93;3.27;;;10.00;99.90;;;;;;5037865;28;20456;-59
2021/11/05 10:58:21;;;;;;;5.07;3.70;;;10.10;99.90;;;;;;5038978;28;20476;-60
2021/11/05 11:00:50;;;;;;;3.80;2.70;;;10.20;99.90;;;;;;5039722;28;20490;-57
2021/11/05 11:03:22;;;;;;;8.33;3.10;;;10.10;99.90;;;;;;5039428;28;20476;-57
2021/11/05 11:05:49;;;;;;;5.17;3.33;;;10.10;99.90;;;;;;5037433;28;20441;-61
2021/11/05 11:08:21;;;;;;;7.03;3.83;;;10.10;99.90;;;;;;5037141;28;20512;-53
2021/11/05 11:10:50;;;;;;;6.07;3.67;;;10.20;99.90;;;;;;5046167;28;20447;-55
2021/11/05 11:13:32;;;;;;;4.30;2.30;;;10.10;99.90;;;;;;5057301;28;20464;-55
2021/11/05 11:15:59;;;;;;;11.23;3.83;;;10.20;99.90;;;;;;5056919;28;20464;-53
2021/11/05 11:18:29;;;;;;;5.57;3.50;;;10.20;99.90;;;;;;5056643;28;20543;-56
2021/11/05 11:20:56;;;;;;;5.27;2.13;;;10.30;99.90;;;;;;5056831;28;20429;-55
2021/11/05 11:23:24;;;;;;;6.00;3.70;;;10.50;99.90;;;;;;5109217;23;20510;-63
2021/11/05 11:25:51;;;;;;;4.00;2.70;;;10.50;99.90;;;;;;5057889;28;20441;-56
2021/11/05 11:28:22;;;;;;;6.90;3.50;;;10.70;99.90;;;;;;5064132;23;21044;-56
2021/11/05 11:30:50;;;;;;;5.00;3.10;;;10.70;99.90;;;;;;5056678;28;20441;-53
2021/11/05 11:33:17;;;;;;;7.10;3.13;;;10.70;99.90;;;;;;5056729;23;20444;-59
2021/11/05 11:35:46;;;;;;;6.33;3.90;;;10.70;99.90;;;;;;5040483;28;20464;-59
2021/11/05 11:40:54;;;;;;;6.30;3.40;;;10.80;99.90;;;;;;5043557;23;20484;-59
2021/11/05 11:43:22;;;;;;;5.40;3.73;;;10.80;99.90;;;;;;5038215;28;20478;-53
2021/11/05 11:45:52;;;;;;;4.80;3.37;;;11.00;99.90;;;;;;5043891;23;20488;-59
2021/11/05 11:51:32;;;;;;;5.30;3.50;;;11.10;99.90;;;;;;5046047;23;20526;-59
2021/11/05 11:54:04;;;;;;;6.70;3.20;;;11.10;99.90;;;;;;5038827;28;20526;-57
2021/11/05 11:56:34;;;;;;;4.23;2.63;;;11.20;99.90;;;;;;4978460;28;20497;-58
2021/11/05 11:59:03;;;;;;;12.23;3.23;;;11.10;99.90;;;;;;4980233;28;20808;-58
2021/11/05 12:01:35;;;;;;;4.20;3.20;;;11.10;99.90;;;;;;5038690;23;20931;-60
2021/11/05 12:04:04;;;;;;;5.23;3.20;;;11.10;99.90;;;;;;5043586;28;20479;-58
2021/11/05 12:07:07;;;;;;;8.90;3.60;;;11.00;99.90;;;;;;5046222;23;20530;-61
2021/11/05 12:12:34;;;;;;;7.80;3.50;;;10.60;99.90;;;;;;5043506;23;20483;-59
2021/11/05 12:15:16;;;;;;;4.63;2.97;;;10.60;99.90;;;;;;5044888;23;20471;-60
2021/11/05 12:18:06;;;;;;;4.00;3.07;;;10.60;99.90;;;;;;5037709;28;20522;-60
2021/11/05 12:20:35;;;;;;;6.33;3.27;;;10.60;99.90;;;;;;5052430;23;20499;-56
2021/11/05 12:23:22;;;;;;;6.00;3.00;;;10.60;99.90;;;;;;5037904;28;20432;-59
2021/11/05 12:25:58;;;;;;;7.23;2.63;;;10.60;99.90;;;;;;5045040;23;20832;-59
2021/11/05 12:28:28;;;;;;;6.40;3.37;;;10.60;99.90;;;;;;5037669;28;20451;-57
2021/11/05 12:31:16;;;;;;;5.03;3.53;;;10.60;99.90;;;;;;5037790;28;20896;-58
2021/11/05 12:33:43;;;;;;;3.93;3.20;;;10.70;99.90;;;;;;5037660;28;20531;-58
2021/11/05 12:36:10;;;;;;;3.60;2.70;;;10.70;99.90;;;;;;5037920;28;20553;-60
2021/11/05 12:39:04;;;;;;;11.50;5.70;;;10.80;99.90;;;;;;5037470;28;20444;-57
2021/11/05 12:41:31;;;;;;;4.70;3.33;;;10.80;99.90;;;;;;5037400;28;20448;-59
2021/11/05 12:44:12;;;;;;;6.97;2.90;;;11.00;99.90;;;;;;5038549;28;20539;-56
2021/11/05 12:46:49;;;;;;;6.73;3.43;;;11.00;99.90;;;;;;5037667;28;20835;-60
2021/11/05 12:49:19;;;;;;;4.57;2.87;;;11.10;99.90;;;;;;5039068;28;20515;-61
2021/11/05 12:51:48;;;;;;;4.10;3.13;;;11.10;99.90;;;;;;5037688;28;20440;-59
2021/11/05 12:54:19;;;;;;;7.23;3.13;;;11.10;99.90;;;;;;5037798;28;20472;-55
2021/11/05 12:56:52;;;;;;;6.40;3.50;;;11.10;99.90;;;;;;5038897;28;20492;-56
2021/11/05 12:59:20;;;;;;;7.50;3.10;;;11.00;99.90;;;;;;5039364;28;20443;-59
2021/11/05 13:01:58;;;;;;;3.80;2.70;;;11.10;99.90;;;;;;5039226;28;20447;-55
2021/11/05 13:04:28;;;;;;;4.07;2.80;;;11.00;99.90;;;;;;5039346;28;20460;-59
2021/11/05 13:06:59;;;;;;;3.97;2.67;;;11.00;99.90;;;;;;5039224;28;20444;-60
2021/11/05 13:09:34;;;;;;;4.27;2.40;;;11.00;99.90;;;;;;5039342;28;20735;-60
2021/11/05 13:12:05;;;;;;;4.27;2.30;;;11.00;99.90;;;;;;5039116;28;20457;-61
2021/11/05 13:14:36;;;;;;;3.93;2.73;;;10.90;99.90;;;;;;5040040;28;20443;-61
2021/11/05 13:19:50;;;;;;;5.50;2.90;;;10.90;99.90;;;;;;5030831;23;20484;-58
2021/11/05 13:22:18;;;;;;;5.20;3.60;;;10.90;99.90;;;;;;5021267;28;20430;-59
2021/11/05 13:24:46;;;;;;;6.47;3.20;;;10.90;99.90;;;;;;5045411;23;20569;-62
2021/11/05 13:27:13;;;;;;;5.20;3.40;;;10.90;99.90;;;;;;5039858;28;20447;-59